Time;durP1;ratioP1;P1;durP2;ratioP2;P2;SDS_P1;SDS_P2;PMS_P1;PMS_P2;Temp;Humidity;BMP_temperature;BMP_pressure;BME280_temperature;BME280_humidity;BME280_pressure;Samples;Min_cycle;Max_cycle;Signal;HPM_P1;HPM_P2
2022/08/02 00:00:45;;;;;;;;;7.20;6.00;;;;;30.62;nan;99188.81;5109759;28;8887;-83
2022/08/02 00:03:14;;;;;;;;;5.00;5.00;;;;;30.63;nan;99182.44;5109937;28;8875;-82
2022/08/02 00:05:43;;;;;;;;;5.00;5.00;;;;;30.62;nan;99193.34;5111789;28;8955;-81
2022/08/02 00:08:11;;;;;;;;;5.40;5.40;;;;;30.59;nan;99188.25;5115631;28;8843;-83
2022/08/02 00:10:41;;;;;;;;;8.00;8.00;;;;;30.63;nan;99190.50;5137500;27;8846;-82
2022/08/02 00:13:09;;;;;;;;;4.80;4.80;;;;;30.64;nan;99188.66;5136811;27;9990;-83
2022/08/02 00:15:38;;;;;;;;;8.20;8.20;;;;;30.61;nan;99186.28;5136638;27;8857;-83
2022/08/02 00:18:08;;;;;;;;;6.00;5.60;;;;;30.68;nan;99190.09;5136336;27;8874;-81
2022/08/02 00:20:37;;;;;;;;;8.00;8.00;;;;;30.75;nan;99185.03;5100523;28;8917;-84
2022/08/02 00:23:06;;;;;;;;;6.00;6.00;;;;;30.69;nan;99181.03;5115127;28;8832;-84
2022/08/02 00:25:34;;;;;;;;;7.00;7.00;;;;;30.67;nan;99183.88;5112745;27;8859;-85
2022/08/02 00:28:03;;;;;;;;;7.80;6.20;;;;;30.60;nan;99190.78;5096044;28;9425;-82
2022/08/02 00:30:32;;;;;;;;;7.00;6.20;;;;;30.52;nan;99187.94;5095477;28;8895;-84
2022/08/02 00:33:01;;;;;;;;;6.80;6.80;;;;;30.36;nan;99187.59;5090604;28;8920;-84
2022/08/02 00:35:31;;;;;;;;;6.00;6.00;;;;;30.33;nan;99188.72;5089997;28;8955;-81
2022/08/02 00:38:00;;;;;;;;;5.80;5.80;;;;;30.34;nan;99187.75;5072838;28;8881;-82
2022/08/02 00:40:29;;;;;;;;;5.60;5.60;;;;;30.41;nan;99190.72;5090134;28;8888;-83
2022/08/02 00:43:03;;;;;;;;;6.00;6.00;;;;;30.59;nan;99185.56;5075966;28;8874;-84
2022/08/02 00:45:32;;;;;;;;;8.20;8.20;;;;;30.59;nan;99196.31;5069779;28;8976;-85
2022/08/02 00:48:20;;;;;;;;;1.00;1.00;;;;;30.46;nan;99191.19;5069628;28;8848;-83
2022/08/02 00:50:50;;;;;;;;;11.20;11.20;;;;;30.76;nan;99202.88;5053677;28;8859;-82
2022/08/02 00:53:19;;;;;;;;;9.00;9.00;;;;;30.90;nan;99210.59;5071914;28;9003;-81
2022/08/02 00:55:48;;;;;;;;;11.00;9.00;;;;;30.95;nan;99202.94;5039925;28;9030;-87
2022/08/02 00:58:16;;;;;;;;;10.60;10.40;;;;;30.92;nan;99203.22;5053211;28;8871;-82
2022/08/02 01:00:45;;;;;;;;;9.80;9.80;;;;;30.71;nan;99201.44;5068993;28;8859;-82
2022/08/02 01:03:14;;;;;;;;;9.00;9.00;;;;;30.41;nan;99202.34;5069399;28;8962;-84
2022/08/02 01:05:43;;;;;;;;;12.80;11.20;;;;;30.51;nan;99205.06;5056410;28;8845;-83
2022/08/02 01:08:33;;;;;;;;;11.20;11.20;;;;;30.31;nan;99207.66;5055334;28;8842;-84
2022/08/02 01:11:02;;;;;;;;;14.20;13.20;;;;;30.27;nan;99202.69;5089230;28;8834;-83
2022/08/02 01:13:32;;;;;;;;;11.00;11.00;;;;;30.18;nan;99203.50;5071153;28;8880;-81
2022/08/02 01:16:08;;;;;;;;;10.20;10.20;;;;;29.96;nan;99204.50;5060685;28;8837;-83
2022/08/02 01:18:44;;;;;;;;;10.00;10.00;;;;;29.89;nan;99201.53;5062067;28;8891;-82
2022/08/02 01:21:35;;;;;;;;;13.00;12.40;;;;;30.23;nan;99203.97;5109743;28;8841;-85
2022/08/02 01:24:19;;;;;;;;;12.00;11.60;;;;;30.21;nan;99203.22;5111247;28;8861;-83
2022/08/02 01:26:55;;;;;;;;;12.80;12.80;;;;;30.16;nan;99206.31;5093476;28;8849;-82
2022/08/02 01:29:31;;;;;;;;;13.20;13.20;;;;;30.19;nan;99200.69;5125575;27;8859;-83
2022/08/02 01:32:05;;;;;;;;;11.80;10.80;;;;;30.16;nan;99194.72;5089924;28;8855;-83
2022/08/02 01:34:39;;;;;;;;;13.20;13.20;;;;;30.14;nan;99197.53;5024248;28;8847;-83
2022/08/02 01:37:15;;;;;;;;;12.80;11.60;;;;;30.09;nan;99191.69;5056259;28;8960;-83
2022/08/02 01:39:47;;;;;;;;;11.60;11.60;;;;;29.82;nan;99190.44;5090777;28;8878;-83
2022/08/02 01:42:18;;;;;;;;;11.00;11.00;;;;;29.65;nan;99194.53;5057121;28;8867;-83
2022/08/02 01:44:51;;;;;;;;;11.60;11.60;;;;;29.59;nan;99191.53;5101461;27;8990;-81
2022/08/02 01:47:24;;;;;;;;;11.40;11.40;;;;;29.20;nan;99196.59;5082720;28;10192;-82
2022/08/02 01:49:57;;;;;;;;;8.20;8.20;;;;;29.17;nan;99197.72;5076583;28;8968;-80
2022/08/02 01:52:29;;;;;;;;;10.80;10.80;;;;;29.10;nan;99202.69;5058904;28;8857;-80
2022/08/02 01:55:04;;;;;;;;;13.20;11.40;;;;;29.20;nan;99197.44;5074802;28;8837;-81
2022/08/02 01:57:37;;;;;;;;;8.40;8.40;;;;;29.19;nan;99201.13;5075776;28;8969;-82
2022/08/02 02:00:12;;;;;;;;;10.00;10.00;;;;;29.32;nan;99201.81;5096906;28;9009;-81
2022/08/02 02:02:49;;;;;;;;;13.40;12.20;;;;;29.48;nan;99206.72;5080399;28;8883;-84
2022/08/02 02:05:20;;;;;;;;;12.80;12.20;;;;;29.29;nan;99196.69;5083291;28;8845;-83
2022/08/02 02:07:52;;;;;;;;;13.40;12.60;;;;;29.29;nan;99207.41;5074911;28;9003;-82
2022/08/02 02:10:24;;;;;;;;;9.80;9.80;;;;;29.15;nan;99203.22;5063332;28;8968;-83
2022/08/02 02:12:54;;;;;;;;;7.40;7.40;;;;;29.12;nan;99197.22;5052635;28;8867;-82
2022/08/02 02:15:26;;;;;;;;;3.80;3.80;;;;;29.11;nan;99206.22;5020745;28;10179;-84
2022/08/02 02:17:57;;;;;;;;;12.20;11.20;;;;;29.05;nan;99198.69;5084719;27;9583;-86
2022/08/02 02:20:42;;;;;;;;;10.00;10.00;;;;;29.05;nan;99196.84;5132108;27;8987;-84
2022/08/02 02:23:11;;;;;;;;;8.40;8.40;;;;;29.09;nan;99200.13;5132195;27;8865;-85
2022/08/02 02:25:42;;;;;;;;;10.00;10.00;;;;;29.07;nan;99202.94;5113605;27;8883;-83
2022/08/02 02:28:21;;;;;;;;;7.80;7.80;;;;;29.09;nan;99206.38;5113557;27;8829;-83
2022/08/02 02:30:59;;;;;;;;;10.80;10.20;;;;;29.21;nan;99204.53;5113428;27;8837;-80
2022/08/02 02:33:30;;;;;;;;;9.20;9.00;;;;;29.09;nan;99206.38;5087460;28;8830;-80
2022/08/02 02:36:00;;;;;;;;;4.00;4.00;;;;;29.14;nan;99216.75;5086610;28;8875;-80
2022/08/02 02:38:32;;;;;;;;;10.20;10.20;;;;;29.19;nan;99217.25;5078437;28;8881;-80
2022/08/02 02:41:03;;;;;;;;;9.00;9.00;;;;;29.10;nan;99218.81;5087244;28;9707;-79
2022/08/02 02:43:34;;;;;;;;;9.40;9.40;;;;;29.16;nan;99222.84;5069761;28;8872;-81
2022/08/02 02:46:06;;;;;;;;;9.00;8.40;;;;;29.13;nan;99225.78;5065993;28;9693;-80
2022/08/02 02:48:36;;;;;;;;;10.00;10.00;;;;;29.16;nan;99225.53;5066334;28;8957;-77
2022/08/02 02:51:06;;;;;;;;;9.20;9.00;;;;;29.24;nan;99227.59;5066812;28;8870;-79
2022/08/02 02:53:36;;;;;;;;;10.00;10.00;;;;;29.27;nan;99219.28;5024520;28;8874;-81
2022/08/02 02:56:25;;;;;;;;;12.00;10.80;;;;;29.49;nan;99231.75;5057091;28;8844;-83
2022/08/02 02:58:54;;;;;;;;;9.60;9.60;;;;;29.35;nan;99219.50;5086185;28;9707;-81
2022/08/02 03:01:28;;;;;;;;;11.40;10.80;;;;;29.31;nan;99224.25;5053174;28;8977;-81
2022/08/02 03:04:17;;;;;;;;;11.20;11.20;;;;;29.20;nan;99236.88;5080473;28;8852;-82
2022/08/02 03:06:46;;;;;;;;;10.60;10.20;;;;;29.34;nan;99231.22;5090348;28;8962;-79
2022/08/02 03:09:14;;;;;;;;;12.20;12.20;;;;;29.54;nan;99234.91;5087716;28;8862;-82
2022/08/02 03:11:44;;;;;;;;;11.20;11.20;;;;;29.22;nan;99230.41;5088425;28;8962;-80
2022/08/02 03:14:13;;;;;;;;;10.00;9.80;;;;;29.11;nan;99236.66;5088472;28;8851;-84
2022/08/02 03:16:44;;;;;;;;;11.00;10.40;;;;;29.19;nan;99244.09;5070948;28;8828;-79
2022/08/02 03:19:13;;;;;;;;;12.60;12.60;;;;;29.10;nan;99242.97;5088001;28;8847;-82
2022/08/02 03:21:42;;;;;;;;;8.00;8.00;;;;;28.91;nan;99248.16;5087447;28;8974;-79
2022/08/02 03:24:12;;;;;;;;;10.80;10.80;;;;;29.00;nan;99251.91;5089125;28;8844;-80
2022/08/02 03:26:41;;;;;;;;;12.40;12.00;;;;;29.03;nan;99249.00;5088746;28;8862;-83
2022/08/02 03:29:10;;;;;;;;;9.80;9.80;;;;;29.03;nan;99249.84;5088771;28;8855;-84
2022/08/02 03:31:43;;;;;;;;;12.80;11.60;;;;;29.00;nan;99250.09;5075361;28;9672;-82
2022/08/02 03:34:14;;;;;;;;;13.40;13.40;;;;;28.79;nan;99255.41;5100237;28;8828;-80
2022/08/02 03:36:43;;;;;;;;;13.00;12.00;;;;;28.78;nan;99257.19;5097238;28;9035;-83
2022/08/02 03:39:13;;;;;;;;;14.40;13.20;;;;;28.89;nan;99253.66;5112846;28;8828;-84
2022/08/02 03:41:43;;;;;;;;;10.80;10.80;;;;;29.01;nan;99261.69;5080212;28;8835;-82
2022/08/02 03:44:13;;;;;;;;;11.80;10.60;;;;;28.70;nan;99259.66;5064749;28;8862;-84
2022/08/02 03:46:42;;;;;;;;;9.60;8.60;;;;;28.56;nan;99266.16;5038165;28;8834;-81
2022/08/02 03:49:15;;;;;;;;;15.80;15.00;;;;;28.71;nan;99266.72;5051802;28;8877;-81
2022/08/02 03:51:45;;;;;;;;;18.80;18.80;;;;;28.72;nan;99264.91;5051488;28;8866;-85
2022/08/02 03:54:14;;;;;;;;;20.40;18.00;;;;;29.05;nan;99269.34;5035255;28;8959;-82
2022/08/02 03:56:43;;;;;;;;;10.00;10.00;;;;;28.56;nan;99274.19;5034530;28;8878;-82
2022/08/02 03:59:14;;;;;;;;;13.60;13.60;;;;;28.59;nan;99273.09;5051110;28;8846;-81
2022/08/02 04:01:43;;;;;;;;;14.00;13.40;;;;;28.63;nan;99273.69;5053330;28;8830;-83
2022/08/02 04:04:13;;;;;;;;;14.60;13.00;;;;;28.51;nan;99273.66;5020142;28;8838;-83
2022/08/02 04:06:41;;;;;;;;;9.00;9.00;;;;;28.52;nan;99278.06;5061995;28;8845;-81
2022/08/02 04:09:10;;;;;;;;;12.60;11.60;;;;;28.66;nan;99271.63;5064461;28;8891;-82
2022/08/02 04:11:39;;;;;;;;;15.00;14.00;;;;;28.72;nan;99281.84;5038637;28;8864;-82
2022/08/02 04:14:09;;;;;;;;;12.40;12.20;;;;;28.86;nan;99277.22;5022802;28;8966;-82
2022/08/02 04:16:43;;;;;;;;;14.60;13.00;;;;;28.89;nan;99277.81;5070594;28;8875;-81
2022/08/02 04:19:19;;;;;;;;;13.80;13.80;;;;;29.35;nan;99281.28;5057738;28;8887;-82
2022/08/02 04:21:51;;;;;;;;;14.40;14.40;;;;;28.86;nan;99286.09;5089475;28;8864;-83
2022/08/02 04:24:25;;;;;;;;;16.40;16.40;;;;;28.61;nan;99289.91;5088192;28;8891;-82
2022/08/02 04:26:56;;;;;;;;;24.00;23.00;;;;;29.02;nan;99280.38;5071399;28;8950;-82
2022/08/02 04:29:36;;;;;;;;;16.20;16.20;;;;;29.13;nan;99282.19;5087135;28;8907;-82
2022/08/02 04:32:06;;;;;;;;;20.00;19.60;;;;;29.17;nan;99289.03;5081121;28;9755;-84
2022/08/02 04:34:37;;;;;;;;;19.80;17.40;;;;;28.59;nan;99291.88;5086000;28;8871;-82
2022/08/02 04:37:07;;;;;;;;;16.80;16.60;;;;;28.08;nan;99295.81;5053669;28;8922;-84
2022/08/02 04:39:36;;;;;;;;;17.00;17.00;;;;;27.57;nan;99306.81;5088770;28;8883;-82
2022/08/02 04:42:05;;;;;;;;;17.20;16.20;;;;;27.28;nan;99309.84;5024467;28;8902;-84
2022/08/02 04:44:34;;;;;;;;;16.40;15.60;;;;;27.30;nan;99313.25;5057263;27;8941;-81
2022/08/02 04:47:04;;;;;;;;;18.00;18.00;;;;;27.34;nan;99312.06;5087254;27;8829;-80
2022/08/02 04:49:34;;;;;;;;;17.80;16.80;;;;;27.16;nan;99319.56;5113349;27;10261;-83
2022/08/02 04:52:05;;;;;;;;;17.20;17.20;;;;;27.07;nan;99314.91;5077782;27;8899;-78
2022/08/02 04:54:33;;;;;;;;;17.20;17.20;;;;;27.08;nan;99313.94;5140368;27;8838;-81
2022/08/02 04:57:53;;;;;;;;;18.00;17.80;;;;;27.35;nan;99318.25;5129844;27;8849;-82
2022/08/02 04:59:51;;;;;;;;;22.40;19.80;;;;;27.23;nan;99322.66;5131673;27;8843;-82
2022/08/02 05:02:21;;;;;;;;;17.40;17.00;;;;;26.98;nan;99327.13;5129344;27;9037;-83
2022/08/02 05:04:51;;;;;;;;;19.00;18.80;;;;;26.81;nan;99332.84;5152187;27;8879;-82
2022/08/02 05:07:21;;;;;;;;;18.80;18.80;;;;;26.86;nan;99332.50;5113101;27;8850;-81
2022/08/02 05:09:50;;;;;;;;;20.60;19.60;;;;;27.02;nan;99335.81;5129624;27;8893;-82
2022/08/02 05:12:20;;;;;;;;;18.80;18.80;;;;;27.41;nan;99342.78;5093271;27;8859;-82
2022/08/02 05:14:49;;;;;;;;;17.60;17.60;;;;;27.96;nan;99329.78;5130656;27;8843;-81
2022/08/02 05:17:18;;;;;;;;;21.40;21.40;;;;;28.03;nan;99335.50;5110756;27;8891;-82
2022/08/02 05:19:47;;;;;;;;;21.40;20.20;;;;;28.18;nan;99334.31;5117542;27;8898;-81
2022/08/02 05:22:16;;;;;;;;;21.00;21.00;;;;;28.39;nan;99339.88;5090976;28;8851;-80
2022/08/02 05:24:46;;;;;;;;;21.80;21.40;;;;;29.07;nan;99328.31;5043907;28;8960;-80
2022/08/02 05:27:14;;;;;;;;;20.80;19.80;;;;;29.44;nan;99330.72;5091864;28;8860;-82
2022/08/02 05:29:44;;;;;;;;;20.40;20.40;;;;;29.85;nan;99338.03;5075313;28;8844;-82
2022/08/02 05:32:21;;;;;;;;;19.80;18.80;;;;;30.16;nan;99340.81;5051898;28;8887;-81
2022/08/02 05:34:51;;;;;;;;;26.00;24.50;;;;;30.44;nan;99341.16;5054724;28;8872;-86
2022/08/02 05:37:20;;;;;;;;;22.75;20.00;;;;;30.78;nan;99340.91;5038300;28;8880;-81
2022/08/02 05:39:50;;;;;;;;;22.50;21.75;;;;;31.11;nan;99341.63;5040510;28;8827;-82
2022/08/02 05:42:24;;;;;;;;;24.00;23.00;;;;;31.35;nan;99344.78;5037392;28;8962;-82
2022/08/02 05:44:52;;;;;;;;;23.40;23.40;;;;;31.33;nan;99351.31;5060653;28;8874;-82
2022/08/02 05:47:22;;;;;;;;;22.50;21.50;;;;;31.53;nan;99350.41;5050470;28;9035;-83
2022/08/02 05:49:51;;;;;;;;;21.75;21.25;;;;;31.67;nan;99349.97;5050164;28;8861;-71
2022/08/02 05:52:24;;;;;;;;;24.20;22.60;;;;;31.77;nan;99349.97;5063145;28;8965;-69
2022/08/02 05:55:05;;;;;;;;;30.00;29.00;;;;;32.06;nan;99354.53;5105685;28;8845;-73
2022/08/02 05:57:45;;;;;;;;;22.50;20.50;;;;;31.84;nan;99359.19;5106036;28;8833;-74
2022/08/02 06:00:16;;;;;;;;;23.00;19.60;;;;;31.12;nan;99360.34;5105529;28;8852;-73
2022/08/02 06:03:03;;;;;;;;;16.60;16.60;;;;;31.08;nan;99364.31;5113240;27;8859;-74
2022/08/02 06:05:35;;;;;;;;;19.60;18.60;;;;;30.97;nan;99361.72;5038821;28;8840;-71
2022/08/02 06:08:07;;;;;;;;;13.00;11.40;;;;;31.21;nan;99367.59;5025546;28;9593;-71
2022/08/02 06:10:40;;;;;;;;;11.80;11.80;;;;;30.70;nan;99355.88;5025119;28;8959;-74
2022/08/02 06:13:10;;;;;;;;;16.20;13.60;;;;;31.12;nan;99368.41;5008947;28;8836;-76
2022/08/02 06:15:43;;;;;;;;;15.60;14.60;;;;;31.30;nan;99360.50;5024872;28;8860;-73
2022/08/02 06:18:21;;;;;;;;;8.60;8.60;;;;;31.54;nan;99362.03;5025460;28;8852;-73
2022/08/02 06:20:58;;;;;;;;;14.00;13.80;;;;;31.86;nan;99359.91;5008224;28;8840;-75
2022/08/02 06:23:47;;;;;;;;;13.60;13.40;;;;;32.00;nan;99357.78;5044907;28;8869;-71
2022/08/02 06:26:28;;;;;;;;;13.40;13.40;;;;;32.24;nan;99374.41;5031292;28;8990;-71
2022/08/02 06:28:58;;;;;;;;;17.00;16.80;;;;;32.31;nan;99361.19;5025245;28;8868;-71
2022/08/02 06:31:27;;;;;;;;;12.20;12.20;;;;;32.50;nan;99364.84;5029749;28;8850;-73
2022/08/02 06:33:55;;;;;;;;;15.60;14.20;;;;;32.62;nan;99361.84;5034305;28;8857;-72
2022/08/02 06:36:31;;;;;;;;;10.20;9.60;;;;;32.69;nan;99366.66;5013058;28;8874;-71
2022/08/02 06:39:04;;;;;;;;;10.00;10.00;;;;;32.87;nan;99366.72;5025330;28;8873;-73
2022/08/02 06:41:39;;;;;;;;;10.80;10.80;;;;;33.03;nan;99370.50;5044670;28;8884;-73
2022/08/02 06:44:15;;;;;;;;;12.00;9.00;;;;;32.83;nan;99371.56;5131998;27;8870;-83
2022/08/02 06:47:03;;;;;;;;;11.40;10.60;;;;;32.96;nan;99376.66;5101243;27;8827;-77
2022/08/02 06:49:40;;;;;;;;;12.00;11.40;;;;;33.16;nan;99382.84;5094103;27;8957;-77
2022/08/02 06:52:20;;;;;;;;;10.60;9.40;;;;;33.28;nan;99378.09;5127440;27;9136;-78
2022/08/02 06:54:53;;;;;;;;;7.00;7.00;;;;;33.26;nan;99378.22;5130483;27;8870;-79
2022/08/02 06:57:23;;;;;;;;;7.60;7.60;;;;;33.31;nan;99384.06;5149207;27;9616;-77
2022/08/02 06:59:51;;;;;;;;;8.40;7.40;;;;;33.39;nan;99383.28;5116284;27;8930;-77
2022/08/02 07:02:20;;;;;;;;;8.00;8.00;;;;;33.32;nan;99387.59;5117090;27;8863;-76
2022/08/02 07:04:49;;;;;;;;;9.80;9.80;;;;;33.43;nan;99381.13;5135473;27;8877;-77
2022/08/02 07:07:17;;;;;;;;;10.20;10.20;;;;;33.48;nan;99376.09;5128131;27;8841;-77
2022/08/02 07:09:46;;;;;;;;;13.00;12.60;;;;;33.70;nan;99369.44;5109827;27;8849;-77
2022/08/02 07:12:25;;;;;;;;;11.60;9.60;;;;;33.18;nan;99376.28;5128472;27;8859;-78
2022/08/02 07:14:54;;;;;;;;;14.00;12.20;;;;;32.22;nan;99387.19;5131810;27;8862;-76
2022/08/02 07:17:23;;;;;;;;;11.00;11.00;;;;;31.43;nan;99384.53;5140160;27;8849;-76
2022/08/02 07:19:52;;;;;;;;;9.40;9.40;;;;;31.56;nan;99376.22;5128844;27;8848;-78
2022/08/02 07:22:22;;;;;;;;;9.40;9.20;;;;;30.99;nan;99384.81;5128559;27;8880;-77
2022/08/02 07:24:51;;;;;;;;;8.80;7.60;;;;;30.92;nan;99385.50;5110277;27;8837;-78
2022/08/02 07:27:20;;;;;;;;;8.00;7.00;;;;;31.65;nan;99388.84;5128690;27;8876;-77
2022/08/02 07:29:50;;;;;;;;;7.80;7.80;;;;;31.00;nan;99391.91;5128708;27;9671;-77
2022/08/02 07:32:21;;;;;;;;;8.00;8.00;;;;;30.22;nan;99388.69;5113962;27;8865;-80
2022/08/02 07:34:50;;;;;;;;;2.00;2.00;;;;;30.21;nan;99389.69;5124624;27;8841;-76
2022/08/02 07:37:22;;;;;;;;;5.40;5.40;;;;;29.76;nan;99384.50;5130734;27;8843;-77
2022/08/02 07:40:12;;;;;;;;;6.60;6.60;;;;;29.94;nan;99384.78;5090875;27;8843;-77
2022/08/02 07:42:43;;;;;;;;;7.00;7.00;;;;;29.90;nan;99381.50;5130114;27;8850;-78
2022/08/02 07:45:14;;;;;;;;;8.00;7.00;;;;;29.70;nan;99380.47;5129995;27;8835;-76
2022/08/02 07:47:43;;;;;;;;;6.80;6.80;;;;;29.58;nan;99384.16;5113875;27;8946;-78
2022/08/02 07:50:14;;;;;;;;;6.40;5.40;;;;;29.37;nan;99376.03;5058001;27;8915;-77
2022/08/02 07:52:44;;;;;;;;;6.20;5.40;;;;;29.34;nan;99387.88;5093624;27;8838;-77
2022/08/02 07:55:14;;;;;;;;;6.40;6.40;;;;;29.70;nan;99391.22;5142710;27;8845;-80
2022/08/02 07:57:43;;;;;;;;;10.60;10.60;;;;;30.08;nan;99383.66;5109434;27;8834;-79
2022/08/02 08:00:17;;;;;;;;;7.00;6.80;;;;;30.33;nan;99392.34;5127652;27;8845;-76
2022/08/02 08:02:46;;;;;;;;;6.20;6.20;;;;;30.12;nan;99390.47;5127631;27;8861;-76
2022/08/02 08:05:15;;;;;;;;;6.60;6.60;;;;;29.92;nan;99389.44;5108842;27;8891;-77
2022/08/02 08:07:44;;;;;;;;;9.00;8.00;;;;;29.88;nan;99391.53;5128027;27;8882;-77
2022/08/02 08:10:12;;;;;;;;;7.80;7.20;;;;;29.85;nan;99390.94;5146878;27;8831;-81
2022/08/02 08:12:41;;;;;;;;;8.00;7.00;;;;;30.27;nan;99386.47;5131236;27;8923;-78
2022/08/02 08:15:10;;;;;;;;;5.40;5.40;;;;;30.34;nan;99377.91;5113682;27;8851;-80
2022/08/02 08:17:40;;;;;;;;;7.00;7.00;;;;;30.18;nan;99381.88;5105171;28;8894;-78
2022/08/02 08:20:09;;;;;;;;;4.60;4.60;;;;;29.75;nan;99385.47;5088132;28;8908;-77
2022/08/02 08:22:43;;;;;;;;;6.00;6.00;;;;;29.87;nan;99380.94;5039529;28;8934;-77
2022/08/02 08:25:12;;;;;;;;;7.60;7.60;;;;;30.00;nan;99384.31;5104908;28;9047;-76
2022/08/02 08:27:48;;;;;;;;;6.00;6.00;;;;;30.71;nan;99389.88;5061009;28;8866;-78
2022/08/02 08:30:17;;;;;;;;;6.00;6.00;;;;;30.37;nan;99386.56;5100513;28;8869;-77
2022/08/02 08:32:47;;;;;;;;;6.00;6.00;;;;;30.35;nan;99385.84;5091621;28;8855;-75
2022/08/02 08:35:16;;;;;;;;;6.60;6.60;;;;;30.22;nan;99387.84;5087934;28;9023;-77
2022/08/02 08:37:45;;;;;;;;;6.00;6.00;;;;;30.13;nan;99387.66;5074187;28;8882;-78
2022/08/02 08:40:14;;;;;;;;;8.60;8.60;;;;;30.54;nan;99386.97;5086582;28;9621;-78
2022/08/02 08:42:47;;;;;;;;;2.60;2.60;;;;;30.89;nan;99379.34;5088244;28;8857;-77
2022/08/02 08:45:16;;;;;;;;;6.20;6.20;;;;;31.31;nan;99386.47;5071667;28;8866;-77
2022/08/02 08:47:52;;;;;;;;;8.20;8.20;;;;;31.98;nan;99379.50;5091431;27;8887;-78
2022/08/02 08:50:24;;;;;;;;;7.80;7.80;;;;;32.56;nan;99384.00;5113860;27;8853;-77
2022/08/02 08:53:01;;;;;;;;;7.40;7.40;;;;;32.16;nan;99386.91;5090196;27;9678;-76
2022/08/02 08:55:32;;;;;;;;;9.40;8.40;;;;;31.31;nan;99389.19;5115481;27;8835;-79
2022/08/02 08:58:01;;;;;;;;;8.00;8.00;;;;;31.20;nan;99386.59;5099317;27;8994;-77
2022/08/02 09:00:31;;;;;;;;;6.20;6.20;;;;;30.74;nan;99380.72;5129790;27;8858;-78
2022/08/02 09:03:04;;;;;;;;;8.40;8.20;;;;;31.15;nan;99383.44;5134935;27;8978;-76
2022/08/02 09:05:35;;;;;;;;;12.40;11.40;;;;;31.85;nan;99387.00;5130046;27;8838;-77
2022/08/02 09:08:04;;;;;;;;;8.60;8.60;;;;;32.21;nan;99382.78;5132797;27;8868;-81
2022/08/02 09:10:38;;;;;;;;;12.20;12.20;;;;;32.78;nan;99371.16;5133373;27;8826;-76
2022/08/02 09:13:09;;;;;;;;;9.00;8.40;;;;;32.82;nan;99391.50;5113900;27;8881;-77
2022/08/02 09:15:59;;;;;;;;;10.00;8.60;;;;;33.14;nan;99374.91;5116405;27;8866;-76
2022/08/02 09:18:43;;;;;;;;;7.00;7.00;;;;;32.88;nan;99379.25;5112601;27;8841;-77
2022/08/02 09:21:15;;;;;;;;;8.40;8.40;;;;;32.90;nan;99370.00;5131192;27;8853;-77
2022/08/02 09:23:46;;;;;;;;;7.60;7.00;;;;;32.15;nan;99387.91;5112503;27;8849;-77
2022/08/02 09:26:16;;;;;;;;;9.00;8.00;;;;;32.24;nan;99389.75;5112354;27;8837;-76
2022/08/02 09:28:46;;;;;;;;;9.40;8.20;;;;;32.19;nan;99386.63;5112449;27;8849;-76
2022/08/02 09:31:17;;;;;;;;;6.00;6.00;;;;;32.87;nan;99377.53;5131089;27;8841;-77
2022/08/02 09:33:53;;;;;;;;;8.40;8.40;;;;;33.06;nan;99374.75;5124494;27;8984;-75
2022/08/02 09:36:23;;;;;;;;;8.20;8.20;;;;;33.40;nan;99366.91;5132345;27;8886;-76
2022/08/02 09:38:57;;;;;;;;;9.60;9.60;;;;;33.52;nan;99361.31;5131886;27;8843;-74
2022/08/02 09:41:29;;;;;;;;;10.80;10.80;;;;;33.81;nan;99362.97;5150156;27;8832;-78
2022/08/02 09:43:59;;;;;;;;;8.20;8.20;;;;;33.54;nan;99375.50;5100516;27;8933;-78
2022/08/02 09:46:36;;;;;;;;;8.20;8.20;;;;;33.38;nan;99358.13;5132974;27;8845;-69
2022/08/02 09:49:09;;;;;;;;;6.00;6.00;;;;;32.73;nan;99370.78;5114269;27;8931;-70
2022/08/02 09:51:39;;;;;;;;;6.00;6.00;;;;;32.89;nan;99360.16;5150494;27;8835;-71
2022/08/02 09:54:11;;;;;;;;;6.40;6.40;;;;;33.54;nan;99357.44;5142520;27;8904;-68
2022/08/02 09:56:44;;;;;;;;;8.60;7.60;;;;;33.53;nan;99357.56;5128729;27;8845;-71
2022/08/02 09:59:15;;;;;;;;;7.60;6.20;;;;;33.59;nan;99352.41;5117294;27;8926;-68
2022/08/02 10:01:46;;;;;;;;;8.20;8.20;;;;;33.98;nan;99352.09;5127906;27;8889;-69
2022/08/02 10:04:23;;;;;;;;;7.40;7.40;;;;;34.29;nan;99346.31;5130566;27;8843;-69
2022/08/02 10:06:54;;;;;;;;;7.60;7.60;;;;;34.56;nan;99349.88;5142891;27;8861;-70
2022/08/02 10:09:22;;;;;;;;;8.80;8.80;;;;;34.61;nan;99352.09;5128166;27;8861;-68
2022/08/02 10:11:52;;;;;;;;;7.80;7.80;;;;;33.15;nan;99344.16;5110568;27;8885;-65
2022/08/02 10:14:22;;;;;;;;;7.80;7.80;;;;;32.58;nan;99348.78;5128554;27;8853;-68
2022/08/02 10:16:53;;;;;;;;;9.00;8.20;;;;;33.21;nan;99331.88;5085429;27;8825;-67
2022/08/02 10:19:24;;;;;;;;;7.00;7.00;;;;;33.27;nan;99344.81;5141429;27;8877;-75
2022/08/02 10:22:09;;;;;;;;;10.00;10.00;;;;;32.93;nan;99331.88;5145699;27;8989;-76
2022/08/02 10:24:40;;;;;;;;;8.60;8.60;;;;;32.42;nan;99343.94;5095602;27;8831;-79
2022/08/02 10:27:18;;;;;;;;;10.00;10.00;;;;;32.49;nan;99331.56;5131327;27;8882;-78
2022/08/02 10:29:50;;;;;;;;;8.20;7.60;;;;;32.61;nan;99335.84;5127998;27;8860;-76
2022/08/02 10:32:26;;;;;;;;;6.00;6.00;;;;;33.18;nan;99324.94;5060786;27;8977;-76
2022/08/02 10:35:04;;;;;;;;;9.20;8.80;;;;;33.81;nan;99330.50;5128045;27;8869;-75
2022/08/02 10:37:49;;;;;;;;;10.60;10.60;;;;;33.52;nan;99326.16;5124880;27;8843;-76
2022/08/02 10:40:25;;;;;;;;;9.60;9.00;;;;;32.97;nan;99327.88;5110239;27;9636;-77
2022/08/02 10:42:58;;;;;;;;;9.60;9.60;;;;;32.29;nan;99321.81;5110358;27;8851;-77
2022/08/02 10:45:29;;;;;;;;;13.00;11.00;;;;;32.66;nan;99330.00;5129348;27;8849;-76
2022/08/02 10:47:59;;;;;;;;;9.00;9.00;;;;;33.65;nan;99325.78;5127207;27;8929;-76
2022/08/02 10:50:55;;;;;;;;;7.00;7.00;;;;;34.23;nan;99332.53;5142496;27;9106;-74
2022/08/02 10:53:29;;;;;;;;;12.60;12.60;;;;;34.30;nan;99320.91;5120106;27;8862;-77
2022/08/02 10:55:59;;;;;;;;;7.20;7.20;;;;;33.45;nan;99327.75;5112197;27;8833;-77
2022/08/02 10:58:31;;;;;;;;;9.60;9.60;;;;;33.07;nan;99321.56;5110288;27;8869;-75
2022/08/02 11:01:05;;;;;;;;;9.80;9.80;;;;;33.99;nan;99323.22;5110228;27;8956;-75
2022/08/02 11:03:40;;;;;;;;;9.60;8.80;;;;;34.09;nan;99329.38;5124368;27;8972;-78
2022/08/02 11:06:11;;;;;;;;;10.00;10.00;;;;;33.85;nan;99332.72;5132270;27;8870;-77
2022/08/02 11:09:25;;;;;;;;;8.00;8.00;;;;;33.93;nan;99313.88;5128702;27;8838;-77
2022/08/02 11:12:04;;;;;;;;;8.60;8.40;;;;;34.27;nan;99314.97;5128725;27;8829;-78
2022/08/02 11:14:34;;;;;;;;;9.40;9.40;;;;;34.75;nan;99316.31;5100780;27;8846;-79
2022/08/02 11:17:11;;;;;;;;;9.60;9.60;;;;;33.43;nan;99319.78;5124928;27;8842;-77
2022/08/02 11:20:26;;;;;;;;;10.60;10.60;;;;;33.37;nan;99329.38;5129353;27;8907;-79
2022/08/02 11:23:34;;;;;;;;;8.20;8.20;;;;;33.53;nan;99320.56;5054071;28;8875;-77
2022/08/02 11:26:44;;;;;;;;;7.20;7.20;;;;;33.60;nan;99312.69;5065165;28;8882;-79
2022/08/02 11:29:13;;;;;;;;;10.60;10.00;;;;;34.29;nan;99304.84;5068443;28;8966;-78
2022/08/02 11:31:45;;;;;;;;;9.00;9.00;;;;;34.90;nan;99309.25;5085683;28;9066;-77
2022/08/02 11:34:17;;;;;;;;;8.60;8.60;;;;;34.89;nan;99307.53;5051342;28;8864;-80
2022/08/02 11:37:05;;;;;;;;;10.00;10.00;;;;;35.06;nan;99305.75;5069596;28;8995;-80
2022/08/02 11:39:35;;;;;;;;;11.00;11.00;;;;;34.89;nan;99307.53;5076528;28;8855;-79
2022/08/02 11:42:04;;;;;;;;;9.60;9.60;;;;;34.07;nan;99309.75;5049184;28;8869;-79
2022/08/02 11:44:40;;;;;;;;;11.00;11.00;;;;;34.50;nan;99299.03;5034039;28;8882;-80
2022/08/02 11:47:09;;;;;;;;;9.80;9.80;;;;;35.43;nan;99292.84;5047252;28;8931;-79
2022/08/02 11:49:38;;;;;;;;;10.00;10.00;;;;;35.52;nan;99303.53;5036673;28;8897;-83
2022/08/02 11:52:09;;;;;;;;;13.00;12.00;;;;;35.24;nan;99294.81;5050814;28;8929;-81
2022/08/02 11:54:43;;;;;;;;;11.00;10.40;;;;;34.43;nan;99314.25;5045859;28;8840;-79
2022/08/02 11:57:16;;;;;;;;;10.00;10.00;;;;;35.36;nan;99305.34;5050131;28;8870;-81
2022/08/02 11:59:50;;;;;;;;;9.60;9.40;;;;;35.73;nan;99304.94;5106148;28;8838;-82
2022/08/02 12:02:20;;;;;;;;;9.60;8.60;;;;;36.48;nan;99298.41;5077269;28;8864;-81
2022/08/02 12:04:53;;;;;;;;;11.20;10.20;;;;;37.14;nan;99290.03;5091916;28;8886;-79
2022/08/02 12:07:30;;;;;;;;;11.25;11.25;;;;;36.51;nan;99299.94;5106552;28;8869;-78
2022/08/02 12:10:07;;;;;;;;;12.75;9.75;;;;;35.81;nan;99296.78;5111055;28;8887;-78
2022/08/02 12:12:48;;;;;;;;;12.60;11.40;;;;;35.38;nan;99300.63;5096736;28;8871;-78
2022/08/02 12:15:29;;;;;;;;;9.60;8.80;;;;;36.38;nan;99287.72;5110941;28;9672;-79
2022/08/02 12:20:45;;;;;;;;;10.40;10.40;;;;;37.30;nan;99291.78;5104938;28;8844;-79